Tropical Cyclones
[Index]
Main Index Home Page Stock Weather Photos Extreme Storms Discussion Storm News and Storm Chasing Reports Tropical Cyclones / Hurricanes / Typhoons Weather Data and Links Wild Fires / Bushfires Weather Observation Techniques Weather Picture Catalogue Tornado Pictures and Reports Stock Video Footage and DVDs for sale
Season 2012-2013 Tropical Cyclone HALEY Track Map
Season 2012-2013 Summaries (Operational Data): [AU] [SIO] [SPAC] [SH]
<<- Previous TC | 2012-2013 Season | Next TC ->>

click for intensity scale information  Lat/long Grid: Show Hide

 Date Labels: Show Hide

Operational Tropical Cyclone Data : JTWC Advisories

Name: HALEY
Number: 1314

07 Feb 2013 06:00 UTC to 14 Feb 2013 00:00 UTC

    date/time    lat    long     hPa   cat  kts
2013-02-07 06   14.0   159.0W   1003                     
2013-02-07 18   14.0   166.0W   1005                     
2013-02-08 06   17.0   164.7W   1010         15          
2013-02-08 12   15.7   161.4W   1010         15          
2013-02-08 18   17.1   160.1W   1010         15          
2013-02-09 00   18.1   158.7W   1004         25          
2013-02-09 06   19.1   157.6W    996    1    35          
2013-02-09 12   20.1   156.5W    993    1    40          
2013-02-09 18   21.1   154.7W    989    1    45          
2013-02-10 00   21.9   153.7W    989    1    45          
2013-02-10 06   22.6   152.7W    989    1    45          
2013-02-10 12   23.4   151.6W    989    1    45          
2013-02-10 18   24.1   150.9W    993    1    40          
2013-02-11 00   24.8   150.0W    996    1    35          
2013-02-11 06   25.1   149.1W   1000         30          
2013-02-11 12   25.4   148.3W   1000         30          
2013-02-11 18   25.8   147.8W   1000         30          
2013-02-12 00   26.1   147.2W   1000         30          
2013-02-12 06   26.1   146.8W   1000         30          
2013-02-12 12   26.2   146.5W   1000         30          
2013-02-12 18   26.1   146.3W   1004         25          
2013-02-13 00   26.0   146.0W   1004         25          
2013-02-13 06   25.5   146.1W   1004         25          
2013-02-13 12   24.8   146.3W   1007         20          
2013-02-13 18   24.6   146.0W   1007         20          
2013-02-14 00   24.2   146.4W   1007         20          
Winds are 10-min average.

Tropical cyclone tracks developed by Michael Bath using operational warnings and advisories and Google Maps.


[Australian Severe Weather index] [Copyright Notice] [Email Contacts] [Search This Site] [Privacy Policy]
Document: tropical_cyclone_haley.htm Updated: 2 May 2017